東京理科大学Ⅰ部体育局航空部

このエントリーをはてなブックマークに追加

ようこそ、理科大航空部HPへ! ここでは、航空部に関する情報や、活動などをお知らせしています。


METAR・TAF

TOKYO INTERNATIONAL
Metar
RJTT 180230Z 06009KT 9999 FEW025 SCT/// 20/12 Q1016 NOSIG RMK 1CU025 A3000

02:30 UTC

Wind: 60° 9kt

Visibility: 9999 m

Sky: FEW 2500 ft

Temp: 20 deg C / 68 deg F

Dewpoint: 12 deg C / 53.6 deg F

Pressure: 1016 hPa

TAF
TAF RJTT 172305Z 1800/1906 01012KT 9999 FEW020 TEMPO 1818/1900 4000 RA BR FEW005 BKN008
NARITA INTERNATIONAL
Metar
RJAA 180230Z 04014KT 010V070 9999 FEW025 SCT030 20/14 Q1015 NOSIG RMK 1CU025 3CU030 A3000

02:30 UTC

Wind: 40° 14kt

Visibility: 9999 m

Sky: FEW 2500 ft

Temp: 20 deg C / 68 deg F

Dewpoint: 14 deg C / 57.2 deg F

Pressure: 1015 hPa

TAF
TAF RJAA 172305Z 1800/1906 04012KT 9999 FEW020 TEMPO 1815/1900 4000 RA BR BECMG 1900/1903 08007KT